sensor_id;sensor_type;location;lat;lon;timestamp;temperature;humidity
12309;DHT22;6217;48.150;17.142;2022-07-29T00:02:49;23.80;59.60
12309;DHT22;6217;48.150;17.142;2022-07-29T00:06:56;23.80;59.60
12309;DHT22;6217;48.150;17.142;2022-07-29T00:11:02;23.80;59.60
12309;DHT22;6217;48.150;17.142;2022-07-29T00:15:09;23.80;60.30
12309;DHT22;6217;48.150;17.142;2022-07-29T00:19:15;23.70;59.60
12309;DHT22;6217;48.150;17.142;2022-07-29T00:23:22;23.70;59.80
12309;DHT22;6217;48.150;17.142;2022-07-29T00:27:35;23.70;59.90
12309;DHT22;6217;48.150;17.142;2022-07-29T00:31:42;23.60;60.00
12309;DHT22;6217;48.150;17.142;2022-07-29T00:35:52;23.50;60.10
12309;DHT22;6217;48.150;17.142;2022-07-29T00:39:58;23.50;60.30
12309;DHT22;6217;48.150;17.142;2022-07-29T00:44:04;23.40;60.30
12309;DHT22;6217;48.150;17.142;2022-07-29T00:48:14;23.40;60.40
12309;DHT22;6217;48.150;17.142;2022-07-29T00:52:24;23.40;60.40
12309;DHT22;6217;48.150;17.142;2022-07-29T00:56:32;23.40;60.30
12309;DHT22;6217;48.150;17.142;2022-07-29T01:00:41;23.30;60.10
12309;DHT22;6217;48.150;17.142;2022-07-29T01:04:48;23.30;60.00
12309;DHT22;6217;48.150;17.142;2022-07-29T01:08:55;23.40;59.90
12309;DHT22;6217;48.150;17.142;2022-07-29T01:13:02;23.40;59.90
12309;DHT22;6217;48.150;17.142;2022-07-29T01:17:10;23.40;59.90
12309;DHT22;6217;48.150;17.142;2022-07-29T01:21:46;23.40;59.80
12309;DHT22;6217;48.150;17.142;2022-07-29T01:30:23;23.40;59.80
12309;DHT22;6217;48.150;17.142;2022-07-29T01:39:19;23.30;60.00
12309;DHT22;6217;48.150;17.142;2022-07-29T01:48:10;23.30;59.90
12309;DHT22;6217;48.150;17.142;2022-07-29T01:52:30;23.30;60.00
12309;DHT22;6217;48.150;17.142;2022-07-29T01:56:40;23.30;60.10
12309;DHT22;6217;48.150;17.142;2022-07-29T02:00:49;23.20;60.10
12309;DHT22;6217;48.150;17.142;2022-07-29T02:04:57;23.20;60.10
12309;DHT22;6217;48.150;17.142;2022-07-29T02:09:05;23.20;60.20
12309;DHT22;6217;48.150;17.142;2022-07-29T02:13:13;23.20;60.40
12309;DHT22;6217;48.150;17.142;2022-07-29T02:17:25;23.20;60.40
12309;DHT22;6217;48.150;17.142;2022-07-29T02:21:33;23.20;60.30
12309;DHT22;6217;48.150;17.142;2022-07-29T02:25:41;23.20;60.40
12309;DHT22;6217;48.150;17.142;2022-07-29T02:29:49;23.20;60.40
12309;DHT22;6217;48.150;17.142;2022-07-29T02:33:57;23.20;60.40
12309;DHT22;6217;48.150;17.142;2022-07-29T02:38:04;23.20;60.60
12309;DHT22;6217;48.150;17.142;2022-07-29T02:42:30;23.20;60.70
12309;DHT22;6217;48.150;17.142;2022-07-29T02:46:43;23.20;60.80
12309;DHT22;6217;48.150;17.142;2022-07-29T02:51:01;23.10;60.90
12309;DHT22;6217;48.150;17.142;2022-07-29T02:55:32;23.10;61.00
12309;DHT22;6217;48.150;17.142;2022-07-29T02:59:40;23.10;61.10
12309;DHT22;6217;48.150;17.142;2022-07-29T03:03:50;23.10;61.20
12309;DHT22;6217;48.150;17.142;2022-07-29T03:08:02;23.10;61.40
12309;DHT22;6217;48.150;17.142;2022-07-29T03:12:10;23.10;61.60
12309;DHT22;6217;48.150;17.142;2022-07-29T03:16:18;23.10;61.70
12309;DHT22;6217;48.150;17.142;2022-07-29T03:20:25;23.10;61.60
12309;DHT22;6217;48.150;17.142;2022-07-29T03:24:34;23.10;61.60
12309;DHT22;6217;48.150;17.142;2022-07-29T03:28:41;23.10;61.70
12309;DHT22;6217;48.150;17.142;2022-07-29T03:32:48;23.10;61.80
12309;DHT22;6217;48.150;17.142;2022-07-29T03:36:56;23.20;61.90
12309;DHT22;6217;48.150;17.142;2022-07-29T03:41:09;23.20;61.90
12309;DHT22;6217;48.150;17.142;2022-07-29T03:45:18;23.20;61.90
12309;DHT22;6217;48.150;17.142;2022-07-29T03:49:26;23.20;62.00
12309;DHT22;6217;48.150;17.142;2022-07-29T03:53:33;23.20;62.00
12309;DHT22;6217;48.150;17.142;2022-07-29T03:57:44;23.20;62.10
12309;DHT22;6217;48.150;17.142;2022-07-29T04:01:52;23.30;62.20
12309;DHT22;6217;48.150;17.142;2022-07-29T04:06:04;23.30;62.20
12309;DHT22;6217;48.150;17.142;2022-07-29T04:10:13;23.30;62.10
12309;DHT22;6217;48.150;17.142;2022-07-29T04:14:21;23.40;61.90
12309;DHT22;6217;48.150;17.142;2022-07-29T04:18:27;23.50;62.00
12309;DHT22;6217;48.150;17.142;2022-07-29T04:22:33;23.50;61.90
12309;DHT22;6217;48.150;17.142;2022-07-29T04:26:40;23.50;61.80
12309;DHT22;6217;48.150;17.142;2022-07-29T04:30:46;23.60;61.70
12309;DHT22;6217;48.150;17.142;2022-07-29T04:34:52;23.70;61.40
12309;DHT22;6217;48.150;17.142;2022-07-29T04:38:59;23.80;61.30
12309;DHT22;6217;48.150;17.142;2022-07-29T04:43:06;23.90;61.20
12309;DHT22;6217;48.150;17.142;2022-07-29T04:47:13;24.20;60.80
12309;DHT22;6217;48.150;17.142;2022-07-29T04:51:19;24.90;59.10
12309;DHT22;6217;48.150;17.142;2022-07-29T04:55:25;24.80;58.90
12309;DHT22;6217;48.150;17.142;2022-07-29T04:59:31;24.70;59.10
12309;DHT22;6217;48.150;17.142;2022-07-29T05:03:38;24.70;58.90
12309;DHT22;6217;48.150;17.142;2022-07-29T05:07:44;24.80;58.90
12309;DHT22;6217;48.150;17.142;2022-07-29T05:11:50;24.90;58.80
12309;DHT22;6217;48.150;17.142;2022-07-29T05:15:56;24.90;58.60
12309;DHT22;6217;48.150;17.142;2022-07-29T05:20:05;24.90;58.40
12309;DHT22;6217;48.150;17.142;2022-07-29T05:24:11;25.00;58.20
12309;DHT22;6217;48.150;17.142;2022-07-29T05:28:17;25.00;58.00
12309;DHT22;6217;48.150;17.142;2022-07-29T05:32:24;25.00;57.80
12309;DHT22;6217;48.150;17.142;2022-07-29T05:36:30;25.10;57.80
12309;DHT22;6217;48.150;17.142;2022-07-29T05:40:36;25.10;57.50
12309;DHT22;6217;48.150;17.142;2022-07-29T05:44:42;25.30;57.40
12309;DHT22;6217;48.150;17.142;2022-07-29T05:48:48;25.40;57.10
12309;DHT22;6217;48.150;17.142;2022-07-29T05:52:55;25.50;56.90
12309;DHT22;6217;48.150;17.142;2022-07-29T05:57:01;25.70;56.30
12309;DHT22;6217;48.150;17.142;2022-07-29T06:01:08;25.80;56.00
12309;DHT22;6217;48.150;17.142;2022-07-29T06:05:15;25.90;56.00
12309;DHT22;6217;48.150;17.142;2022-07-29T06:09:21;26.20;55.70
12309;DHT22;6217;48.150;17.142;2022-07-29T06:13:28;26.60;54.70
12309;DHT22;6217;48.150;17.142;2022-07-29T06:17:35;26.80;54.10
12309;DHT22;6217;48.150;17.142;2022-07-29T06:21:45;27.10;53.80
12309;DHT22;6217;48.150;17.142;2022-07-29T06:25:53;27.80;52.70
12309;DHT22;6217;48.150;17.142;2022-07-29T06:29:59;28.60;51.00
12309;DHT22;6217;48.150;17.142;2022-07-29T06:34:05;28.20;50.90
12309;DHT22;6217;48.150;17.142;2022-07-29T06:38:11;28.00;51.40
12309;DHT22;6217;48.150;17.142;2022-07-29T06:42:18;27.90;51.90
12309;DHT22;6217;48.150;17.142;2022-07-29T06:46:25;27.90;51.70
12309;DHT22;6217;48.150;17.142;2022-07-29T06:50:31;28.10;51.30
12309;DHT22;6217;48.150;17.142;2022-07-29T06:54:37;28.40;50.80
12309;DHT22;6217;48.150;17.142;2022-07-29T06:58:44;28.70;50.10
12309;DHT22;6217;48.150;17.142;2022-07-29T07:02:50;29.20;49.80
12309;DHT22;6217;48.150;17.142;2022-07-29T07:06:57;30.00;48.10
12309;DHT22;6217;48.150;17.142;2022-07-29T07:11:03;30.50;47.10
12309;DHT22;6217;48.150;17.142;2022-07-29T07:15:10;30.50;46.60
12309;DHT22;6217;48.150;17.142;2022-07-29T07:19:16;30.10;47.00
12309;DHT22;6217;48.150;17.142;2022-07-29T07:23:24;29.90;47.20
12309;DHT22;6217;48.150;17.142;2022-07-29T07:27:30;29.80;47.30
12309;DHT22;6217;48.150;17.142;2022-07-29T07:31:37;30.00;47.30
12309;DHT22;6217;48.150;17.142;2022-07-29T07:35:43;30.20;46.90
12309;DHT22;6217;48.150;17.142;2022-07-29T07:39:51;30.60;46.20
12309;DHT22;6217;48.150;17.142;2022-07-29T07:43:57;30.50;45.80
12309;DHT22;6217;48.150;17.142;2022-07-29T07:48:04;30.80;45.60
12309;DHT22;6217;48.150;17.142;2022-07-29T07:52:10;30.40;45.90
12309;DHT22;6217;48.150;17.142;2022-07-29T07:56:17;31.20;45.30
12309;DHT22;6217;48.150;17.142;2022-07-29T08:00:23;31.70;43.80
12309;DHT22;6217;48.150;17.142;2022-07-29T08:04:30;31.30;43.80
12309;DHT22;6217;48.150;17.142;2022-07-29T08:08:37;30.90;44.30
12309;DHT22;6217;48.150;17.142;2022-07-29T08:12:45;31.00;44.40
12309;DHT22;6217;48.150;17.142;2022-07-29T08:16:55;31.40;44.10
12309;DHT22;6217;48.150;17.142;2022-07-29T08:21:02;31.60;43.20
12309;DHT22;6217;48.150;17.142;2022-07-29T08:25:08;31.60;43.40
12309;DHT22;6217;48.150;17.142;2022-07-29T08:29:14;31.30;43.50
12309;DHT22;6217;48.150;17.142;2022-07-29T08:33:21;31.00;43.80
12309;DHT22;6217;48.150;17.142;2022-07-29T08:37:28;31.00;44.20
12309;DHT22;6217;48.150;17.142;2022-07-29T08:41:35;31.20;43.90
12309;DHT22;6217;48.150;17.142;2022-07-29T08:45:46;31.30;43.50
12309;DHT22;6217;48.150;17.142;2022-07-29T08:49:54;31.30;43.30
12309;DHT22;6217;48.150;17.142;2022-07-29T08:54:00;31.40;43.30
12309;DHT22;6217;48.150;17.142;2022-07-29T08:58:07;31.80;43.00
12309;DHT22;6217;48.150;17.142;2022-07-29T09:02:20;32.20;42.40
12309;DHT22;6217;48.150;17.142;2022-07-29T09:06:33;32.30;41.80
12309;DHT22;6217;48.150;17.142;2022-07-29T09:10:41;32.30;41.80
12309;DHT22;6217;48.150;17.142;2022-07-29T09:14:47;32.60;41.60
12309;DHT22;6217;48.150;17.142;2022-07-29T09:18:53;32.50;41.50
12309;DHT22;6217;48.150;17.142;2022-07-29T09:23:07;32.50;41.40
12309;DHT22;6217;48.150;17.142;2022-07-29T09:27:24;32.40;41.70
12309;DHT22;6217;48.150;17.142;2022-07-29T09:31:37;32.50;41.50
12309;DHT22;6217;48.150;17.142;2022-07-29T09:35:44;32.70;41.20
12309;DHT22;6217;48.150;17.142;2022-07-29T09:39:50;32.60;41.00
12309;DHT22;6217;48.150;17.142;2022-07-29T09:43:59;32.60;41.10
12309;DHT22;6217;48.150;17.142;2022-07-29T09:48:17;32.40;40.70
12309;DHT22;6217;48.150;17.142;2022-07-29T09:52:29;32.20;40.90
12309;DHT22;6217;48.150;17.142;2022-07-29T09:56:42;32.30;40.80
12309;DHT22;6217;48.150;17.142;2022-07-29T10:00:50;32.50;40.80
12309;DHT22;6217;48.150;17.142;2022-07-29T10:04:57;32.90;40.50
12309;DHT22;6217;48.150;17.142;2022-07-29T10:09:11;33.30;40.00
12309;DHT22;6217;48.150;17.142;2022-07-29T10:13:17;33.60;39.40
12309;DHT22;6217;48.150;17.142;2022-07-29T10:17:23;33.90;39.40
12309;DHT22;6217;48.150;17.142;2022-07-29T10:21:29;33.70;39.10
12309;DHT22;6217;48.150;17.142;2022-07-29T10:25:37;33.80;39.20
12309;DHT22;6217;48.150;17.142;2022-07-29T10:29:43;34.20;39.00
12309;DHT22;6217;48.150;17.142;2022-07-29T10:34:05;34.50;38.40
12309;DHT22;6217;48.150;17.142;2022-07-29T10:43:24;34.70;37.20
12309;DHT22;6217;48.150;17.142;2022-07-29T10:47:33;34.30;37.40
12309;DHT22;6217;48.150;17.142;2022-07-29T10:56:23;33.40;38.40
12309;DHT22;6217;48.150;17.142;2022-07-29T11:00:31;33.40;38.40
12309;DHT22;6217;48.150;17.142;2022-07-29T11:09:16;33.10;38.40
12309;DHT22;6217;48.150;17.142;2022-07-29T11:13:44;33.00;38.70
12309;DHT22;6217;48.150;17.142;2022-07-29T11:22:02;33.40;37.90
12309;DHT22;6217;48.150;17.142;2022-07-29T11:30:15;33.10;37.90
12309;DHT22;6217;48.150;17.142;2022-07-29T11:34:23;33.20;37.90
12309;DHT22;6217;48.150;17.142;2022-07-29T11:38:34;33.30;37.40
12309;DHT22;6217;48.150;17.142;2022-07-29T11:42:44;33.30;37.20
12309;DHT22;6217;48.150;17.142;2022-07-29T11:46:51;33.30;37.00
12309;DHT22;6217;48.150;17.142;2022-07-29T11:50:58;33.10;37.10
12309;DHT22;6217;48.150;17.142;2022-07-29T11:55:06;33.00;37.60
12309;DHT22;6217;48.150;17.142;2022-07-29T11:59:13;33.00;37.60
12309;DHT22;6217;48.150;17.142;2022-07-29T12:03:27;33.00;37.70
12309;DHT22;6217;48.150;17.142;2022-07-29T12:07:35;33.30;37.50
12309;DHT22;6217;48.150;17.142;2022-07-29T12:11:41;33.50;37.20
12309;DHT22;6217;48.150;17.142;2022-07-29T12:15:55;33.60;36.90
12309;DHT22;6217;48.150;17.142;2022-07-29T12:20:05;33.40;37.10
12309;DHT22;6217;48.150;17.142;2022-07-29T12:24:11;33.40;37.30
12309;DHT22;6217;48.150;17.142;2022-07-29T12:28:17;33.40;37.10
12309;DHT22;6217;48.150;17.142;2022-07-29T12:32:34;33.40;37.10
12309;DHT22;6217;48.150;17.142;2022-07-29T12:36:42;33.60;37.10
12309;DHT22;6217;48.150;17.142;2022-07-29T12:40:49;33.80;36.80
12309;DHT22;6217;48.150;17.142;2022-07-29T12:44:56;33.70;36.70
12309;DHT22;6217;48.150;17.142;2022-07-29T12:49:03;33.60;36.80
12309;DHT22;6217;48.150;17.142;2022-07-29T12:53:11;33.50;36.90
12309;DHT22;6217;48.150;17.142;2022-07-29T12:57:19;33.40;37.00
12309;DHT22;6217;48.150;17.142;2022-07-29T13:01:25;33.10;37.10
12309;DHT22;6217;48.150;17.142;2022-07-29T13:05:43;33.00;36.90
12309;DHT22;6217;48.150;17.142;2022-07-29T13:09:50;32.80;37.10
12309;DHT22;6217;48.150;17.142;2022-07-29T13:13:57;32.80;37.20
12309;DHT22;6217;48.150;17.142;2022-07-29T13:18:04;32.80;37.00
12309;DHT22;6217;48.150;17.142;2022-07-29T13:22:16;32.80;36.70
12309;DHT22;6217;48.150;17.142;2022-07-29T13:26:24;32.90;36.80
12309;DHT22;6217;48.150;17.142;2022-07-29T13:30:30;32.90;37.00
12309;DHT22;6217;48.150;17.142;2022-07-29T13:34:36;33.10;37.00
12309;DHT22;6217;48.150;17.142;2022-07-29T13:38:42;33.30;36.70
12309;DHT22;6217;48.150;17.142;2022-07-29T13:42:48;33.40;36.40
12309;DHT22;6217;48.150;17.142;2022-07-29T13:46:58;33.50;36.20
12309;DHT22;6217;48.150;17.142;2022-07-29T13:51:04;33.50;36.30
12309;DHT22;6217;48.150;17.142;2022-07-29T13:55:10;33.40;36.40
12309;DHT22;6217;48.150;17.142;2022-07-29T13:59:17;33.40;37.10
12309;DHT22;6217;48.150;17.142;2022-07-29T14:03:24;33.40;36.40
12309;DHT22;6217;48.150;17.142;2022-07-29T14:07:30;33.20;36.70
12309;DHT22;6217;48.150;17.142;2022-07-29T14:11:36;33.00;36.80
12309;DHT22;6217;48.150;17.142;2022-07-29T14:15:44;32.80;36.80
12309;DHT22;6217;48.150;17.142;2022-07-29T14:19:50;32.60;36.80
12309;DHT22;6217;48.150;17.142;2022-07-29T14:23:56;32.60;36.80
12309;DHT22;6217;48.150;17.142;2022-07-29T14:28:03;32.50;36.60
12309;DHT22;6217;48.150;17.142;2022-07-29T14:32:09;32.60;36.50
12309;DHT22;6217;48.150;17.142;2022-07-29T14:36:17;32.70;36.50
12309;DHT22;6217;48.150;17.142;2022-07-29T14:40:26;32.70;36.50
12309;DHT22;6217;48.150;17.142;2022-07-29T14:44:32;32.80;36.70
12309;DHT22;6217;48.150;17.142;2022-07-29T14:48:38;32.70;36.80
12309;DHT22;6217;48.150;17.142;2022-07-29T14:52:45;32.60;36.90
12309;DHT22;6217;48.150;17.142;2022-07-29T14:56:52;32.50;36.90
12309;DHT22;6217;48.150;17.142;2022-07-29T15:01:02;32.30;37.20
12309;DHT22;6217;48.150;17.142;2022-07-29T15:05:09;32.20;37.70
12309;DHT22;6217;48.150;17.142;2022-07-29T15:09:15;32.10;38.00
12309;DHT22;6217;48.150;17.142;2022-07-29T15:13:21;31.80;38.20
12309;DHT22;6217;48.150;17.142;2022-07-29T15:17:27;31.50;38.60
12309;DHT22;6217;48.150;17.142;2022-07-29T15:21:33;31.10;39.20
12309;DHT22;6217;48.150;17.142;2022-07-29T15:25:40;30.70;40.10
12309;DHT22;6217;48.150;17.142;2022-07-29T15:29:46;30.40;40.90
12309;DHT22;6217;48.150;17.142;2022-07-29T15:33:52;30.10;41.30
12309;DHT22;6217;48.150;17.142;2022-07-29T15:37:58;29.70;43.20
12309;DHT22;6217;48.150;17.142;2022-07-29T15:42:05;29.20;46.10
12309;DHT22;6217;48.150;17.142;2022-07-29T15:46:16;28.90;47.20
12309;DHT22;6217;48.150;17.142;2022-07-29T15:50:42;28.60;48.90
12309;DHT22;6217;48.150;17.142;2022-07-29T15:54:48;28.30;50.00
12309;DHT22;6217;48.150;17.142;2022-07-29T15:58:54;27.90;52.30
12309;DHT22;6217;48.150;17.142;2022-07-29T16:03:01;27.50;54.30
12309;DHT22;6217;48.150;17.142;2022-07-29T16:07:07;27.10;56.10
12309;DHT22;6217;48.150;17.142;2022-07-29T16:11:17;26.90;57.90
12309;DHT22;6217;48.150;17.142;2022-07-29T16:15:24;26.80;58.60
12309;DHT22;6217;48.150;17.142;2022-07-29T16:19:30;26.80;59.60
12309;DHT22;6217;48.150;17.142;2022-07-29T16:23:37;26.90;60.40
12309;DHT22;6217;48.150;17.142;2022-07-29T16:27:43;27.00;61.20
12309;DHT22;6217;48.150;17.142;2022-07-29T16:31:50;27.10;61.40
12309;DHT22;6217;48.150;17.142;2022-07-29T16:35:57;27.10;62.30
12309;DHT22;6217;48.150;17.142;2022-07-29T16:40:05;26.90;63.50
12309;DHT22;6217;48.150;17.142;2022-07-29T16:44:12;26.90;64.00
12309;DHT22;6217;48.150;17.142;2022-07-29T16:48:19;27.00;64.10
12309;DHT22;6217;48.150;17.142;2022-07-29T16:52:25;27.00;64.30
12309;DHT22;6217;48.150;17.142;2022-07-29T16:56:31;27.20;64.50
12309;DHT22;6217;48.150;17.142;2022-07-29T17:00:38;27.40;64.30
12309;DHT22;6217;48.150;17.142;2022-07-29T17:04:44;27.50;63.90
12309;DHT22;6217;48.150;17.142;2022-07-29T17:08:50;27.50;63.70
12309;DHT22;6217;48.150;17.142;2022-07-29T17:12:56;27.60;63.70
12309;DHT22;6217;48.150;17.142;2022-07-29T17:17:02;27.60;63.30
12309;DHT22;6217;48.150;17.142;2022-07-29T17:21:09;27.70;62.30
12309;DHT22;6217;48.150;17.142;2022-07-29T17:25:15;27.60;61.70
12309;DHT22;6217;48.150;17.142;2022-07-29T17:29:21;27.60;61.20
12309;DHT22;6217;48.150;17.142;2022-07-29T17:33:27;27.70;60.90
12309;DHT22;6217;48.150;17.142;2022-07-29T17:37:33;27.70;60.60
12309;DHT22;6217;48.150;17.142;2022-07-29T17:41:41;27.70;60.10
12309;DHT22;6217;48.150;17.142;2022-07-29T17:45:49;27.80;59.80
12309;DHT22;6217;48.150;17.142;2022-07-29T17:49:55;27.70;59.60
12309;DHT22;6217;48.150;17.142;2022-07-29T17:54:02;27.70;59.60
12309;DHT22;6217;48.150;17.142;2022-07-29T17:58:08;27.70;59.60
12309;DHT22;6217;48.150;17.142;2022-07-29T18:02:14;27.60;59.40
12309;DHT22;6217;48.150;17.142;2022-07-29T18:06:20;27.60;59.40
12309;DHT22;6217;48.150;17.142;2022-07-29T18:10:27;27.60;59.40
12309;DHT22;6217;48.150;17.142;2022-07-29T18:14:33;27.50;59.30
12309;DHT22;6217;48.150;17.142;2022-07-29T18:18:40;27.40;59.10
12309;DHT22;6217;48.150;17.142;2022-07-29T18:22:46;27.40;59.10
12309;DHT22;6217;48.150;17.142;2022-07-29T18:26:52;27.30;59.00
12309;DHT22;6217;48.150;17.142;2022-07-29T18:30:59;27.20;59.10
12309;DHT22;6217;48.150;17.142;2022-07-29T18:35:07;27.20;59.30
12309;DHT22;6217;48.150;17.142;2022-07-29T18:39:13;27.00;59.70
12309;DHT22;6217;48.150;17.142;2022-07-29T18:43:20;26.90;60.20
12309;DHT22;6217;48.150;17.142;2022-07-29T18:47:26;26.80;60.70
12309;DHT22;6217;48.150;17.142;2022-07-29T18:51:32;26.70;61.20
12309;DHT22;6217;48.150;17.142;2022-07-29T18:55:38;26.60;62.00
12309;DHT22;6217;48.150;17.142;2022-07-29T18:59:45;26.30;63.20
12309;DHT22;6217;48.150;17.142;2022-07-29T19:03:51;26.10;64.30
12309;DHT22;6217;48.150;17.142;2022-07-29T19:07:57;25.90;66.10
12309;DHT22;6217;48.150;17.142;2022-07-29T19:12:04;25.60;67.90
12309;DHT22;6217;48.150;17.142;2022-07-29T19:16:10;25.40;69.80
12309;DHT22;6217;48.150;17.142;2022-07-29T19:20:18;25.20;70.90
12309;DHT22;6217;48.150;17.142;2022-07-29T19:24:25;25.20;71.50
12309;DHT22;6217;48.150;17.142;2022-07-29T19:28:31;25.10;72.30
12309;DHT22;6217;48.150;17.142;2022-07-29T19:32:37;25.00;72.90
12309;DHT22;6217;48.150;17.142;2022-07-29T19:36:43;25.00;73.50
12309;DHT22;6217;48.150;17.142;2022-07-29T19:40:50;24.90;74.30
12309;DHT22;6217;48.150;17.142;2022-07-29T19:44:56;24.70;75.00
12309;DHT22;6217;48.150;17.142;2022-07-29T19:49:03;24.70;75.30
12309;DHT22;6217;48.150;17.142;2022-07-29T19:53:11;24.70;75.90
12309;DHT22;6217;48.150;17.142;2022-07-29T19:57:17;24.60;76.70
12309;DHT22;6217;48.150;17.142;2022-07-29T20:01:23;24.50;77.00
12309;DHT22;6217;48.150;17.142;2022-07-29T20:05:30;24.50;77.20
12309;DHT22;6217;48.150;17.142;2022-07-29T20:09:36;24.50;77.20
12309;DHT22;6217;48.150;17.142;2022-07-29T20:13:44;24.60;77.30
12309;DHT22;6217;48.150;17.142;2022-07-29T20:17:50;24.50;77.40
12309;DHT22;6217;48.150;17.142;2022-07-29T20:21:57;24.50;77.50
12309;DHT22;6217;48.150;17.142;2022-07-29T20:26:03;24.40;77.20
12309;DHT22;6217;48.150;17.142;2022-07-29T20:30:10;24.50;76.90
12309;DHT22;6217;48.150;17.142;2022-07-29T20:34:19;24.40;76.60
12309;DHT22;6217;48.150;17.142;2022-07-29T20:38:25;24.40;76.20
12309;DHT22;6217;48.150;17.142;2022-07-29T20:42:33;24.50;75.80
12309;DHT22;6217;48.150;17.142;2022-07-29T20:46:40;24.50;75.20
12309;DHT22;6217;48.150;17.142;2022-07-29T20:50:46;24.50;74.60
12309;DHT22;6217;48.150;17.142;2022-07-29T20:54:53;24.60;74.10
12309;DHT22;6217;48.150;17.142;2022-07-29T20:58:59;24.70;73.40
12309;DHT22;6217;48.150;17.142;2022-07-29T21:03:06;24.70;72.60
12309;DHT22;6217;48.150;17.142;2022-07-29T21:07:12;24.80;71.90
12309;DHT22;6217;48.150;17.142;2022-07-29T21:11:18;24.90;71.50
12309;DHT22;6217;48.150;17.142;2022-07-29T21:15:24;24.90;71.10
12309;DHT22;6217;48.150;17.142;2022-07-29T21:19:33;24.90;70.80
12309;DHT22;6217;48.150;17.142;2022-07-29T21:23:40;24.90;70.70
12309;DHT22;6217;48.150;17.142;2022-07-29T21:27:47;25.00;70.50
12309;DHT22;6217;48.150;17.142;2022-07-29T21:32:12;25.00;70.30
12309;DHT22;6217;48.150;17.142;2022-07-29T21:36:18;24.90;70.40
12309;DHT22;6217;48.150;17.142;2022-07-29T21:40:24;24.90;70.80
12309;DHT22;6217;48.150;17.142;2022-07-29T21:44:31;24.80;71.20
12309;DHT22;6217;48.150;17.142;2022-07-29T21:48:37;24.70;71.50
12309;DHT22;6217;48.150;17.142;2022-07-29T21:52:43;24.70;71.80
12309;DHT22;6217;48.150;17.142;2022-07-29T21:56:49;24.60;72.20
12309;DHT22;6217;48.150;17.142;2022-07-29T22:00:55;24.50;72.60
12309;DHT22;6217;48.150;17.142;2022-07-29T22:05:01;24.40;73.00
12309;DHT22;6217;48.150;17.142;2022-07-29T22:09:08;24.40;73.40
12309;DHT22;6217;48.150;17.142;2022-07-29T22:13:14;24.40;73.50
12309;DHT22;6217;48.150;17.142;2022-07-29T22:17:20;24.30;73.80
12309;DHT22;6217;48.150;17.142;2022-07-29T22:21:26;24.30;74.00
12309;DHT22;6217;48.150;17.142;2022-07-29T22:25:32;24.20;74.00
12309;DHT22;6217;48.150;17.142;2022-07-29T22:29:39;24.20;74.20
12309;DHT22;6217;48.150;17.142;2022-07-29T22:33:45;24.20;74.40
12309;DHT22;6217;48.150;17.142;2022-07-29T22:37:54;24.20;74.60
12309;DHT22;6217;48.150;17.142;2022-07-29T22:42:00;24.10;74.50
12309;DHT22;6217;48.150;17.142;2022-07-29T22:46:08;24.10;74.90
12309;DHT22;6217;48.150;17.142;2022-07-29T22:50:15;24.10;74.90
12309;DHT22;6217;48.150;17.142;2022-07-29T22:54:21;24.10;74.80
12309;DHT22;6217;48.150;17.142;2022-07-29T22:58:28;24.10;74.90
12309;DHT22;6217;48.150;17.142;2022-07-29T23:02:34;24.10;74.90
12309;DHT22;6217;48.150;17.142;2022-07-29T23:06:41;24.10;75.20
12309;DHT22;6217;48.150;17.142;2022-07-29T23:10:48;24.00;75.30
12309;DHT22;6217;48.150;17.142;2022-07-29T23:14:54;23.90;75.50
12309;DHT22;6217;48.150;17.142;2022-07-29T23:19:00;23.90;75.60
12309;DHT22;6217;48.150;17.142;2022-07-29T23:23:06;23.90;75.70
12309;DHT22;6217;48.150;17.142;2022-07-29T23:27:12;23.90;75.70
12309;DHT22;6217;48.150;17.142;2022-07-29T23:31:19;23.90;75.90
12309;DHT22;6217;48.150;17.142;2022-07-29T23:35:26;23.90;75.90
12309;DHT22;6217;48.150;17.142;2022-07-29T23:39:34;23.80;75.90
12309;DHT22;6217;48.150;17.142;2022-07-29T23:43:40;23.80;76.10
12309;DHT22;6217;48.150;17.142;2022-07-29T23:47:46;23.80;76.30
12309;DHT22;6217;48.150;17.142;2022-07-29T23:51:52;23.80;76.30
12309;DHT22;6217;48.150;17.142;2022-07-29T23:55:59;23.80;76.20
